Terminal Aerodrome Forecast
Issued by NWS

Home | Current Version | Previous Version | Graphics & Text | Print | Product List | Glossary On
Versions: 1 2 3 4 5 6 7 8 9 10 11 12 13 14 15 16
000
FTUS43 KMPX 220500
TAFRWF
TAF
KRWF 220520Z 2206/2306 33006KT P6SM SKC
     FM221500 01008KT P6SM FEW250
     FM222000 07007KT P6SM SCT250
     FM230000 12009KT P6SM BKN250=

USA.gov is the U.S. government's official web portal to all federal, state and local government web resources and services.